Nearby METAR Reports

 

KRDU - Raleigh-Durham, NC, USA
Distance from station: NE 9mi, 14km
Updated: Sun, 16-Jun-2024 8:51pm EDT
Mostly cloudy
Mostly cloudy
 Wind from E
Wind: E 7 mph, 11 km/h
Temperature: 82°F, 28°C
Heat Index: 82°F, 28°C
Dew Point: 59°F, 15°C
Humidity: 45%
Barometer: 1020.7 hPa
Clouds: Mostly cloudy
Visibility: 10 miles, 16 km
Cloud details: Mostly cloudy 6000 ft
Mostly cloudy 15000 ft
2024/06/17 00:51 KRDU 170051Z 10006KT 10SM BKN060 BKN150 28/15 A3014 RMK AO2 SLP202 T02830150
KLHZ - Louisburg, NC, USA
Distance from station: N 9mi, 14km
Updated: Sun, 16-Jun-2024 8:45pm EDT
Clear
Clear
 Wind from ESE
Wind: ESE 5 mph, 7 km/h
Temperature: 79°F, 26°C
Dew Point: 59°F, 15°C
Humidity: 51%
Barometer: 1021.7 hPa
Clouds: Clear
Visibility: 10 miles, 16 km
2024/06/17 00:45 KLHZ 170045Z AUTO 12004KT 10SM CLR 26/15 A3017 RMK AO2
 
KJNX - Smithfield, NC, USA
Distance from station: NNW 14mi, 23km
Updated: Sun, 16-Jun-2024 8:50pm EDT
Partly cloudy
Partly cloudy
 Wind from SE
Wind: SE 3 mph, 6 km/h
Temperature: 81°F, 27°C
Heat Index: 82°F, 28°C
Dew Point: 61°F, 16°C
Humidity: 51%
Barometer: 1020.7 hPa
Clouds: Partly cloudy
Visibility: 10 miles, 16 km
Cloud details: Partly cloudy 11000 ft
2024/06/17 00:50 KJNX 170050Z AUTO 14003KT 10SM SCT110 27/16 A3014 RMK AO2
KHRJ - Erwin, NC, USA
Distance from station: ENE 12mi, 19km
Updated: Sun, 16-Jun-2024 8:50pm EDT
Clear
Clear
 Wind from SE
Wind: SE 6 mph, 9 km/h
Temperature: 82°F, 28°C
Heat Index: 82°F, 28°C
Dew Point: 59°F, 15°C
Humidity: 45%
Barometer: 1021 hPa
Clouds: Clear
Visibility: 10 miles, 16 km
2024/06/17 00:50 KHRJ 170050Z AUTO 14005KT 10SM CLR 28/15 A3015 RMK AO2 T02820153
 
KTTA - Sanford, NC, USA
Distance from station: NNW 31mi, 50km
Updated: Sun, 16-Jun-2024 8:45pm EDT
Overcast
Overcast
 Wind from calm
Wind: Calm
Temperature: 81°F, 27°C
Heat Index: 83°F, 28°C
Dew Point: 66°F, 19°C
Humidity: 62%
Barometer: 1020.3 hPa
Clouds: Overcast
Visibility: 10 miles, 16 km
Cloud details: Overcast 6500 ft
2024/06/17 00:45 KTTA 170045Z AUTO 00000KT 10SM OVC065 27/19 A3013 RMK AO2 T02650191
KSCR - Siler City, NC, USA
Distance from station: NW 21mi, 34km
Updated: Sun, 16-Jun-2024 8:45pm EDT
Clear
Clear
 Wind from calm
Wind: Calm
Temperature: 77°F, 25°C
Dew Point: 68°F, 20°C
Humidity: 74%
Barometer: 1020.7 hPa
Clouds: Clear
Visibility: 10 miles, 16 km
2024/06/17 00:45 KSCR 170045Z AUTO 00000KT 10SM CLR 25/20 A3014 RMK AO2 T02470203